createdAt,value
2023-05-23T00:00:36.510Z,8.13
2023-05-23T00:03:07.512Z,8.00
2023-05-23T00:05:38.641Z,8.00
2023-05-23T00:08:09.544Z,7.90
2023-05-23T00:10:41.425Z,8.63
2023-05-23T00:13:12.544Z,9.17
2023-05-23T00:15:43.027Z,8.23
2023-05-23T00:18:15.393Z,9.30
2023-05-23T00:20:47.126Z,8.97
2023-05-23T00:23:21.020Z,7.70
2023-05-23T00:25:53.159Z,7.73
2023-05-23T00:28:24.480Z,8.50
2023-05-23T00:31:02.670Z,8.17
2023-05-23T00:33:35.044Z,8.30
2023-05-23T00:36:10.706Z,8.63
2023-05-23T00:38:40.408Z,9.20
2023-05-23T00:41:12.201Z,8.83
2023-05-23T00:43:43.018Z,9.07
2023-05-23T00:46:17.272Z,8.07
2023-05-23T00:48:49.762Z,7.93
2023-05-23T00:51:29.307Z,9.40
2023-05-23T00:54:04.348Z,8.80
2023-05-23T00:56:33.282Z,8.20
2023-05-23T00:59:05.178Z,8.67
2023-05-23T01:01:45.305Z,8.93
2023-05-23T01:04:17.091Z,8.70
2023-05-23T01:06:49.412Z,8.60
2023-05-23T01:09:23.618Z,8.30
2023-05-23T01:12:11.525Z,7.93
2023-05-23T01:14:50.905Z,8.27
2023-05-23T01:17:25.659Z,8.10
2023-05-23T01:20:02.970Z,8.73
2023-05-23T01:23:11.198Z,8.33
2023-05-23T01:26:00.209Z,8.47
2023-05-23T01:28:47.570Z,8.20
2023-05-23T01:31:19.932Z,8.73
2023-05-23T01:33:56.550Z,8.70
2023-05-23T01:36:27.054Z,8.63
2023-05-23T01:38:59.218Z,9.10
2023-05-23T01:41:35.092Z,8.43
2023-05-23T01:44:12.406Z,8.53
2023-05-23T01:46:49.921Z,9.50
2023-05-23T01:49:20.953Z,9.30
2023-05-23T01:51:51.442Z,9.30
2023-05-23T01:54:23.039Z,8.47
2023-05-23T01:56:54.619Z,8.63
2023-05-23T01:59:31.147Z,8.40
2023-05-23T02:02:01.277Z,10.03
2023-05-23T02:04:34.596Z,9.40
2023-05-23T02:07:04.207Z,10.17
2023-05-23T02:09:34.487Z,9.33
2023-05-23T02:12:05.871Z,9.83
2023-05-23T02:14:39.851Z,8.10
2023-05-23T02:17:13.261Z,10.23
2023-05-23T02:19:43.924Z,9.90
2023-05-23T02:22:13.118Z,8.73
2023-05-23T02:24:41.773Z,8.37
2023-05-23T02:27:20.785Z,9.13
2023-05-23T02:29:50.665Z,9.90
2023-05-23T02:32:21.315Z,9.00
2023-05-23T02:34:50.464Z,9.53
2023-05-23T02:37:22.264Z,8.77
2023-05-23T02:39:51.359Z,9.30
2023-05-23T02:42:31.095Z,9.40
2023-05-23T02:45:05.800Z,9.40
2023-05-23T02:47:33.963Z,9.77
2023-05-23T02:50:05.199Z,9.60
2023-05-23T02:52:48.733Z,9.93
2023-05-23T02:55:18.462Z,9.40
2023-05-23T02:57:59.997Z,9.90
2023-05-23T03:00:48.714Z,9.77
2023-05-23T03:03:20.420Z,9.70
2023-05-23T03:05:51.700Z,9.67
2023-05-23T03:08:21.458Z,9.30
2023-05-23T03:10:50.495Z,9.40
2023-05-23T03:13:26.518Z,10.37
2023-05-23T03:16:02.529Z,11.20
2023-05-23T03:18:31.950Z,9.83
2023-05-23T03:21:02.619Z,10.70
2023-05-23T03:23:32.863Z,11.53
2023-05-23T03:26:09.081Z,10.67
2023-05-23T03:28:41.049Z,10.57
2023-05-23T03:31:19.533Z,10.47
2023-05-23T03:34:01.613Z,12.17
2023-05-23T03:36:39.793Z,10.40
2023-05-23T03:39:10.961Z,11.80
2023-05-23T03:41:52.034Z,12.83
2023-05-23T03:44:21.594Z,12.63
2023-05-23T03:46:56.016Z,11.40
2023-05-23T03:49:26.820Z,10.70
2023-05-23T03:51:56.897Z,11.73
2023-05-23T03:54:32.872Z,12.03
2023-05-23T03:57:03.149Z,11.00
2023-05-23T03:59:34.177Z,10.23
2023-05-23T04:02:19.000Z,9.63
2023-05-23T04:04:51.733Z,10.27
2023-05-23T04:07:26.655Z,11.60
2023-05-23T04:09:57.788Z,9.87
2023-05-23T04:12:26.784Z,11.20
2023-05-23T04:14:59.505Z,9.97
2023-05-23T04:17:41.068Z,11.37
2023-05-23T04:20:14.014Z,10.67
2023-05-23T04:22:51.053Z,11.40
2023-05-23T04:25:24.793Z,11.37
2023-05-23T04:28:13.883Z,10.60
2023-05-23T04:30:42.821Z,10.97
2023-05-23T04:33:30.492Z,11.60
2023-05-23T04:36:02.337Z,11.10
2023-05-23T04:38:34.368Z,11.77
2023-05-23T04:41:06.396Z,12.23
2023-05-23T04:44:13.068Z,11.90
2023-05-23T04:46:50.394Z,12.77
2023-05-23T04:49:57.274Z,11.70
2023-05-23T04:52:31.796Z,12.00
2023-05-23T04:55:10.137Z,13.60
2023-05-23T04:57:42.978Z,13.63
2023-05-23T05:00:17.892Z,13.20
2023-05-23T05:02:47.651Z,13.87
2023-05-23T05:05:24.352Z,15.40
2023-05-23T05:07:53.995Z,15.00
2023-05-23T05:10:24.111Z,15.00
2023-05-23T05:12:52.753Z,13.93
2023-05-23T05:15:27.312Z,12.67
2023-05-23T05:18:06.919Z,14.30
2023-05-23T05:20:48.907Z,14.30
2023-05-23T05:26:07.664Z,15.40
2023-05-23T05:28:36.846Z,13.27
2023-05-23T05:31:10.404Z,13.23
2023-05-23T05:33:42.150Z,13.00
2023-05-23T05:36:24.520Z,14.50
2023-05-23T05:38:56.105Z,14.50
2023-05-23T05:41:27.365Z,13.80
2023-05-23T05:44:01.442Z,13.90
2023-05-23T05:46:32.487Z,14.97
2023-05-23T05:49:03.077Z,14.80
2023-05-23T05:51:33.239Z,14.50
2023-05-23T05:54:07.404Z,13.60
2023-05-23T05:56:35.667Z,14.20
2023-05-23T05:59:11.055Z,15.10
2023-05-23T06:01:45.037Z,14.50
2023-05-23T06:04:19.322Z,13.87
2023-05-23T06:07:10.835Z,14.10
2023-05-23T06:09:41.268Z,12.20
2023-05-23T06:12:09.727Z,12.00
2023-05-23T06:14:37.732Z,11.37
2023-05-23T06:17:08.925Z,10.80
2023-05-23T06:19:46.712Z,11.00
2023-05-23T06:22:24.407Z,10.80
2023-05-23T06:24:53.019Z,11.10
2023-05-23T06:27:23.456Z,9.90
2023-05-23T06:29:54.301Z,9.60
2023-05-23T06:32:25.791Z,10.80
2023-05-23T06:34:57.416Z,10.30
2023-05-23T06:37:26.846Z,10.03
2023-05-23T06:40:04.218Z,9.90
2023-05-23T06:42:35.475Z,10.10
2023-05-23T06:45:20.366Z,11.27
2023-05-23T06:47:52.016Z,10.97
2023-05-23T06:50:33.181Z,10.33
2023-05-23T06:53:07.282Z,9.87
2023-05-23T06:55:36.989Z,10.00
2023-05-23T06:58:14.500Z,9.63
2023-05-23T07:00:43.078Z,12.40
2023-05-23T07:03:23.968Z,10.80
2023-05-23T07:05:53.788Z,10.77
2023-05-23T07:08:26.910Z,10.87
2023-05-23T07:11:06.840Z,10.53
2023-05-23T07:14:03.662Z,10.77
2023-05-23T07:17:08.588Z,10.20
2023-05-23T07:19:47.790Z,10.37
2023-05-23T07:22:51.748Z,9.33
2023-05-23T07:25:32.353Z,11.07
2023-05-23T07:28:02.945Z,10.10
2023-05-23T07:30:40.648Z,11.10
2023-05-23T07:33:12.560Z,11.53
2023-05-23T07:35:42.892Z,10.90
2023-05-23T07:38:17.101Z,10.60
2023-05-23T07:40:55.655Z,10.30
2023-05-23T07:43:32.736Z,11.13
2023-05-23T07:46:03.503Z,9.70
2023-05-23T07:48:33.125Z,9.70
2023-05-23T07:51:04.087Z,9.60
2023-05-23T07:53:42.255Z,9.87
2023-05-23T07:56:17.646Z,11.87
2023-05-23T07:58:58.174Z,12.13
2023-05-23T08:01:30.003Z,10.70
2023-05-23T08:04:05.277Z,10.17
2023-05-23T08:06:52.133Z,9.10
2023-05-23T08:09:42.526Z,9.17
2023-05-23T08:12:18.131Z,8.50
2023-05-23T08:14:52.074Z,8.93
2023-05-23T08:17:40.130Z,8.57
2023-05-23T08:20:19.160Z,8.20
2023-05-23T08:22:49.282Z,9.17
2023-05-23T08:25:19.989Z,8.90
2023-05-23T08:27:52.104Z,8.50
2023-05-23T08:30:59.680Z,8.97
2023-05-23T08:33:29.214Z,7.90
2023-05-23T08:36:01.282Z,8.50
2023-05-23T08:38:32.668Z,8.63
2023-05-23T08:41:30.399Z,9.03
2023-05-23T08:44:10.235Z,8.00
2023-05-23T08:46:52.792Z,9.50
2023-05-23T08:49:39.837Z,8.60
2023-05-23T08:52:11.711Z,9.13
2023-05-23T08:54:44.379Z,8.33
2023-05-23T08:57:19.589Z,9.03
2023-05-23T09:00:06.332Z,8.70
2023-05-23T09:02:35.059Z,8.20
2023-05-23T09:08:06.343Z,8.43
2023-05-23T09:10:38.405Z,7.30
2023-05-23T09:13:19.927Z,8.07
2023-05-23T09:16:08.611Z,8.50
2023-05-23T09:18:45.423Z,8.77
2023-05-23T09:21:25.292Z,7.97
2023-05-23T09:24:06.347Z,8.50
2023-05-23T09:26:39.089Z,8.30
2023-05-23T09:29:07.595Z,8.80
2023-05-23T09:31:40.851Z,8.70
2023-05-23T09:34:19.631Z,9.00
2023-05-23T09:36:48.856Z,8.30
2023-05-23T09:39:20.568Z,8.50
2023-05-23T09:41:50.357Z,7.90
2023-05-23T09:44:24.815Z,7.73
2023-05-23T09:46:56.118Z,8.83
2023-05-23T09:49:25.441Z,9.47
2023-05-23T09:52:08.714Z,8.50
2023-05-23T09:54:41.030Z,8.63
2023-05-23T09:57:12.055Z,9.20
2023-05-23T09:59:42.920Z,9.03
2023-05-23T10:02:14.304Z,8.90
2023-05-23T10:04:53.268Z,8.03
2023-05-23T10:07:28.001Z,9.87
2023-05-23T10:09:59.242Z,9.70
2023-05-23T10:12:48.332Z,9.77
2023-05-23T10:15:24.018Z,8.60
2023-05-23T10:18:08.712Z,8.77
2023-05-23T10:20:40.551Z,8.90
2023-05-23T10:23:12.452Z,8.67
2023-05-23T10:25:49.734Z,8.20
2023-05-23T10:28:20.474Z,8.87
2023-05-23T10:30:51.389Z,8.67
2023-05-23T10:33:31.876Z,8.50
2023-05-23T10:36:07.226Z,9.40
2023-05-23T10:38:45.662Z,8.73
2023-05-23T10:41:20.101Z,9.50
2023-05-23T10:43:55.793Z,9.40
2023-05-23T10:46:27.451Z,9.67
2023-05-23T10:49:08.465Z,9.70
2023-05-23T10:51:42.031Z,9.37
2023-05-23T10:54:13.139Z,9.10
2023-05-23T10:56:42.452Z,8.97
2023-05-23T10:59:21.515Z,9.10
2023-05-23T11:01:57.647Z,8.80
2023-05-23T11:04:28.526Z,8.73
2023-05-23T11:06:58.926Z,9.53
2023-05-23T11:09:27.119Z,9.23
2023-05-23T11:12:08.388Z,9.27
2023-05-23T11:15:01.145Z,10.30
2023-05-23T11:17:36.458Z,8.97
2023-05-23T11:20:15.806Z,9.77
2023-05-23T11:22:55.890Z,9.43
2023-05-23T11:25:43.056Z,8.60
2023-05-23T11:28:20.596Z,9.03
2023-05-23T11:30:57.903Z,9.70
2023-05-23T11:33:27.346Z,9.70
2023-05-23T11:36:01.076Z,9.90
2023-05-23T11:38:35.153Z,9.73
2023-05-23T11:41:04.430Z,8.93
2023-05-23T11:43:36.509Z,7.77
2023-05-23T11:46:11.140Z,7.80
2023-05-23T11:48:53.402Z,5.80
2023-05-23T11:51:26.594Z,6.43
2023-05-23T11:54:03.102Z,6.00
2023-05-23T11:56:32.421Z,6.53
2023-05-23T11:59:02.461Z,6.53
2023-05-23T12:01:33.297Z,7.50
2023-05-23T12:04:13.861Z,7.50
2023-05-23T12:06:48.505Z,7.43
2023-05-23T12:09:23.086Z,7.80
2023-05-23T12:12:00.834Z,7.67
2023-05-23T12:14:31.360Z,7.67
2023-05-23T12:17:02.269Z,7.93
2023-05-23T12:19:31.205Z,7.70
2023-05-23T12:22:09.792Z,7.90
2023-05-23T12:24:46.725Z,6.47
2023-05-23T12:27:19.425Z,7.20
2023-05-23T12:29:54.064Z,6.80
2023-05-23T12:32:26.858Z,6.63
2023-05-23T12:34:58.282Z,6.77
2023-05-23T12:37:39.300Z,7.03
2023-05-23T12:40:20.781Z,6.87
2023-05-23T12:42:53.679Z,7.13
2023-05-23T12:45:25.114Z,7.70
2023-05-23T12:47:54.857Z,6.30
2023-05-23T12:50:24.580Z,6.43
2023-05-23T12:52:59.909Z,7.33
2023-05-23T12:55:30.505Z,7.07
2023-05-23T12:58:00.165Z,7.67
2023-05-23T13:00:32.524Z,8.43
2023-05-23T13:03:09.233Z,7.80
2023-05-23T13:05:39.972Z,9.00
2023-05-23T13:08:24.238Z,8.60
2023-05-23T13:10:59.896Z,8.30
2023-05-23T13:13:32.302Z,7.53
2023-05-23T13:16:01.654Z,7.80
2023-05-23T13:18:30.873Z,8.23
2023-05-23T13:21:02.432Z,8.87
2023-05-23T13:23:46.558Z,9.17
2023-05-23T13:26:23.908Z,9.07
2023-05-23T13:28:53.234Z,9.73
2023-05-23T13:31:23.539Z,9.37
2023-05-23T13:33:55.414Z,9.33
2023-05-23T13:36:30.239Z,8.87
2023-05-23T13:39:02.353Z,9.30
2023-05-23T13:41:34.511Z,9.73
2023-05-23T13:44:05.976Z,10.33
2023-05-23T13:46:44.034Z,10.60
2023-05-23T13:49:16.688Z,11.03
2023-05-23T13:51:48.212Z,11.30
2023-05-23T13:54:20.164Z,10.73
2023-05-23T13:56:50.810Z,10.40
2023-05-23T13:59:21.486Z,10.90
2023-05-23T14:01:51.248Z,10.10
2023-05-23T14:04:21.283Z,10.20
2023-05-23T14:06:57.254Z,9.67
2023-05-23T14:09:30.844Z,9.97
2023-05-23T14:11:59.086Z,9.07
2023-05-23T14:14:30.616Z,8.40
2023-05-23T14:16:59.580Z,7.60
2023-05-23T14:19:36.447Z,7.30
2023-05-23T14:22:05.896Z,7.70
2023-05-23T14:24:36.510Z,5.70
2023-05-23T14:27:10.214Z,6.10
2023-05-23T14:29:46.270Z,6.10
2023-05-23T14:32:18.119Z,6.10
2023-05-23T14:34:55.455Z,6.53
2023-05-23T14:37:24.356Z,6.80
2023-05-23T14:40:11.197Z,7.97
2023-05-23T14:42:40.955Z,7.73
2023-05-23T14:45:18.555Z,6.50
2023-05-23T14:47:48.554Z,6.00
2023-05-23T14:50:31.843Z,6.80
2023-05-23T14:53:00.761Z,6.87
2023-05-23T14:55:34.957Z,6.47
2023-05-23T14:58:03.637Z,6.70
2023-05-23T15:00:36.983Z,5.83
2023-05-23T15:03:07.880Z,5.80
2023-05-23T15:05:38.492Z,6.27
2023-05-23T15:08:07.586Z,6.37
2023-05-23T15:10:43.537Z,6.93
2023-05-23T15:13:12.436Z,7.17
2023-05-23T15:15:44.268Z,7.40
2023-05-23T15:18:31.525Z,6.57
2023-05-23T15:21:05.857Z,8.00
2023-05-23T15:23:34.414Z,8.37
2023-05-23T15:26:11.188Z,8.03
2023-05-23T15:28:48.610Z,8.17
2023-05-23T15:31:22.521Z,8.13
2023-05-23T15:33:54.441Z,7.63
2023-05-23T15:36:33.176Z,7.97
2023-05-23T15:39:06.209Z,7.80
2023-05-23T15:41:53.035Z,8.27
2023-05-23T15:44:22.558Z,8.10
2023-05-23T15:47:00.833Z,8.30
2023-05-23T15:49:32.387Z,8.30
2023-05-23T15:52:02.781Z,8.67
2023-05-23T15:54:36.433Z,7.80
2023-05-23T15:57:17.869Z,8.50
2023-05-23T15:59:54.338Z,8.37
2023-05-23T16:02:26.712Z,7.40
2023-05-23T16:04:57.861Z,7.83
2023-05-23T16:07:29.046Z,7.40
2023-05-23T16:09:57.975Z,8.00
2023-05-23T16:12:35.653Z,8.33
2023-05-23T16:15:05.783Z,9.20
2023-05-23T16:17:34.974Z,8.20
2023-05-23T16:20:04.627Z,7.87
2023-05-23T16:22:35.616Z,7.47
2023-05-23T16:25:06.833Z,7.73
2023-05-23T16:27:50.323Z,6.90
2023-05-23T16:30:19.543Z,6.33
2023-05-23T16:32:53.298Z,7.00
2023-05-23T16:35:27.510Z,7.60
2023-05-23T16:38:02.134Z,7.37
2023-05-23T16:40:43.738Z,7.73
2023-05-23T16:43:22.102Z,7.70
2023-05-23T16:45:53.859Z,6.87
2023-05-23T16:48:24.245Z,7.50
2023-05-23T16:51:01.322Z,6.90
2023-05-23T16:53:31.609Z,6.93
2023-05-23T16:56:01.608Z,7.10
2023-05-23T16:58:39.397Z,6.83
2023-05-23T17:01:13.920Z,6.30
2023-05-23T17:03:43.216Z,6.00
2023-05-23T17:06:20.398Z,6.70
2023-05-23T17:08:50.266Z,6.33
2023-05-23T17:11:20.449Z,6.40
2023-05-23T17:14:04.985Z,7.07
2023-05-23T17:16:43.381Z,6.10
2023-05-23T17:19:12.574Z,6.77
2023-05-23T17:21:44.593Z,6.40
2023-05-23T17:24:21.259Z,6.70
2023-05-23T17:26:54.064Z,5.60
2023-05-23T17:29:27.783Z,5.73
2023-05-23T17:31:59.863Z,6.53
2023-05-23T17:34:29.222Z,6.97
2023-05-23T17:37:01.594Z,6.20
2023-05-23T17:39:33.290Z,5.70
2023-05-23T17:42:06.796Z,6.20
2023-05-23T17:44:48.095Z,5.37
2023-05-23T17:47:23.101Z,6.03
2023-05-23T17:49:52.638Z,6.20
2023-05-23T17:52:25.728Z,6.30
2023-05-23T17:54:55.504Z,6.70
2023-05-23T17:57:30.649Z,6.30
2023-05-23T18:00:01.714Z,6.80
2023-05-23T18:02:34.181Z,6.10
2023-05-23T18:05:05.740Z,6.97
2023-05-23T18:07:37.432Z,8.60
2023-05-23T18:10:14.114Z,16.53
2023-05-23T18:12:44.504Z,9.27
2023-05-23T18:15:23.894Z,8.33
2023-05-23T18:17:59.066Z,7.13
2023-05-23T18:20:36.401Z,7.03
2023-05-23T18:23:05.697Z,7.60
2023-05-23T18:25:46.901Z,7.57
2023-05-23T18:28:20.797Z,8.10
2023-05-23T18:30:52.338Z,7.90
2023-05-23T18:33:22.487Z,8.23
2023-05-23T18:36:01.744Z,8.07
2023-05-23T18:38:32.150Z,7.17
2023-05-23T18:41:15.250Z,9.53
2023-05-23T18:43:46.773Z,7.83
2023-05-23T18:46:35.149Z,8.73
2023-05-23T18:49:07.966Z,8.33
2023-05-23T18:51:38.326Z,7.53
2023-05-23T18:54:10.885Z,7.47
2023-05-23T18:56:49.975Z,8.80
2023-05-23T18:59:21.842Z,11.73
2023-05-23T19:01:54.238Z,13.67
2023-05-23T19:04:29.385Z,12.93
2023-05-23T19:07:03.509Z,13.87
2023-05-23T19:09:42.574Z,14.43
2023-05-23T19:12:12.874Z,12.97
2023-05-23T19:14:51.539Z,16.97
2023-05-23T19:17:23.552Z,11.70
2023-05-23T19:19:56.198Z,15.27
2023-05-23T19:22:50.469Z,12.40
2023-05-23T19:25:24.499Z,12.10
2023-05-23T19:27:56.888Z,14.93
2023-05-23T19:30:40.730Z,12.10
2023-05-23T19:33:17.174Z,12.90
2023-05-23T19:35:57.412Z,11.03
2023-05-23T19:38:27.435Z,10.00
2023-05-23T19:40:56.500Z,9.70
2023-05-23T19:43:35.826Z,8.70
2023-05-23T19:46:05.592Z,9.77
2023-05-23T19:48:38.108Z,9.33
2023-05-23T19:51:12.491Z,9.13
2023-05-23T19:53:45.560Z,9.40
2023-05-23T19:56:20.973Z,8.70
2023-05-23T19:59:02.399Z,8.60
2023-05-23T20:01:42.123Z,9.17
2023-05-23T20:04:18.546Z,7.87
2023-05-23T20:06:49.096Z,8.70
2023-05-23T20:09:26.751Z,9.10
2023-05-23T20:12:03.826Z,8.43
2023-05-23T20:14:34.887Z,9.00
2023-05-23T20:17:04.932Z,8.17
2023-05-23T20:19:41.012Z,8.83
2023-05-23T20:22:12.575Z,9.40
2023-05-23T20:24:44.542Z,8.43
2023-05-23T20:27:18.751Z,9.13
2023-05-23T20:29:55.791Z,9.10
2023-05-23T20:32:29.542Z,8.37
2023-05-23T20:35:15.328Z,8.70
2023-05-23T20:37:52.773Z,9.40
2023-05-23T20:40:28.852Z,8.30
2023-05-23T20:43:04.910Z,9.30
2023-05-23T20:45:37.342Z,8.50
2023-05-23T20:48:09.254Z,9.50
2023-05-23T20:50:42.352Z,7.80
2023-05-23T20:53:20.847Z,9.00
2023-05-23T20:56:06.855Z,9.30
2023-05-23T20:58:46.390Z,8.60
2023-05-23T21:01:16.644Z,8.13
2023-05-23T21:03:51.241Z,9.80
2023-05-23T21:06:23.603Z,8.47
2023-05-23T21:09:09.013Z,9.10
2023-05-23T21:12:33.930Z,10.10
2023-05-23T21:15:20.933Z,9.60
2023-05-23T21:17:52.822Z,9.00
2023-05-23T21:20:28.271Z,9.73
2023-05-23T21:23:00.171Z,9.50
2023-05-23T21:25:40.099Z,8.63
2023-05-23T21:28:13.918Z,8.50
2023-05-23T21:30:49.390Z,8.87
2023-05-23T21:33:18.393Z,8.67
2023-05-23T21:35:57.234Z,9.30
2023-05-23T21:38:30.174Z,9.30
2023-05-23T21:41:02.062Z,8.37
2023-05-23T21:43:38.163Z,7.70
2023-05-23T21:46:07.032Z,7.37
2023-05-23T21:48:37.989Z,7.30
2023-05-23T21:51:18.474Z,7.70
2023-05-23T21:53:55.470Z,7.43
2023-05-23T21:56:26.353Z,7.83
2023-05-23T21:58:56.879Z,7.67
2023-05-23T22:01:27.096Z,6.57
2023-05-23T22:03:59.021Z,8.20
2023-05-23T22:06:35.241Z,7.70
2023-05-23T22:09:19.251Z,8.53
2023-05-23T22:11:53.711Z,9.10
2023-05-23T22:14:22.058Z,8.90
2023-05-23T22:16:55.426Z,8.37
2023-05-23T22:19:30.092Z,8.43
2023-05-23T22:21:59.255Z,8.90
2023-05-23T22:24:39.310Z,8.57
2023-05-23T22:27:10.083Z,7.90
2023-05-23T22:29:41.724Z,7.60
2023-05-23T22:32:12.689Z,7.80
2023-05-23T22:34:48.819Z,7.20
2023-05-23T22:37:26.685Z,7.87
2023-05-23T22:39:58.886Z,8.30
2023-05-23T22:42:36.568Z,7.77
2023-05-23T22:45:10.477Z,7.83
2023-05-23T22:47:42.942Z,7.50
2023-05-23T22:50:17.131Z,7.10
2023-05-23T22:52:48.365Z,8.10
2023-05-23T22:55:19.849Z,7.60
2023-05-23T22:57:50.081Z,7.07
2023-05-23T23:00:19.799Z,7.57
2023-05-23T23:02:52.857Z,7.17
2023-05-23T23:05:23.793Z,7.20
2023-05-23T23:08:00.835Z,6.47
2023-05-23T23:10:33.582Z,6.47
2023-05-23T23:13:05.774Z,6.10
2023-05-23T23:15:36.896Z,6.60
2023-05-23T23:18:07.720Z,5.90
2023-05-23T23:20:39.503Z,6.30
2023-05-23T23:23:08.028Z,6.77
2023-05-23T23:25:37.829Z,6.03
2023-05-23T23:28:13.819Z,6.33
2023-05-23T23:30:44.632Z,6.20
2023-05-23T23:33:22.422Z,6.30
2023-05-23T23:35:56.914Z,6.13
2023-05-23T23:38:26.520Z,6.20
2023-05-23T23:41:03.599Z,6.70
2023-05-23T23:43:34.326Z,6.00
2023-05-23T23:46:04.175Z,6.60
2023-05-23T23:48:33.795Z,5.27
2023-05-23T23:51:08.527Z,4.87
2023-05-23T23:53:48.028Z,5.03
2023-05-23T23:56:24.724Z,4.97
2023-05-23T23:58:58.807Z,4.40
